sensor_id;sensor_type;location;lat;lon;timestamp;pressure;altitude;pressure_sealevel;temperature;humidity
81997;BME280;71500;50.806;8.774;2023-12-28T00:02:03;99401.55;;;5.87;76.88
81997;BME280;71500;50.806;8.774;2023-12-28T00:04:34;99400.20;;;5.89;76.83
81997;BME280;71500;50.806;8.774;2023-12-28T00:07:06;99401.59;;;5.91;76.85
81997;BME280;71500;50.806;8.774;2023-12-28T00:09:37;99398.19;;;5.95;76.88
81997;BME280;71500;50.806;8.774;2023-12-28T00:12:09;99394.27;;;5.97;76.80
81997;BME280;71500;50.806;8.774;2023-12-28T00:14:40;99393.40;;;6.00;76.61
81997;BME280;71500;50.806;8.774;2023-12-28T00:17:11;99395.64;;;6.00;76.75
81997;BME280;71500;50.806;8.774;2023-12-28T00:19:43;99400.91;;;6.00;76.70
81997;BME280;71500;50.806;8.774;2023-12-28T00:22:14;99407.23;;;6.01;76.63
81997;BME280;71500;50.806;8.774;2023-12-28T00:24:46;99404.13;;;6.00;76.65
81997;BME280;71500;50.806;8.774;2023-12-28T00:27:17;99396.71;;;6.00;76.77
81997;BME280;71500;50.806;8.774;2023-12-28T00:29:48;99394.10;;;6.04;76.74
81997;BME280;71500;50.806;8.774;2023-12-28T00:32:20;99379.84;;;6.08;76.70
81997;BME280;71500;50.806;8.774;2023-12-28T00:34:52;99378.91;;;6.11;76.55
81997;BME280;71500;50.806;8.774;2023-12-28T00:37:23;99389.11;;;6.16;76.59
81997;BME280;71500;50.806;8.774;2023-12-28T00:39:54;99391.19;;;6.21;76.46
81997;BME280;71500;50.806;8.774;2023-12-28T00:42:26;99396.10;;;6.26;76.37
81997;BME280;71500;50.806;8.774;2023-12-28T00:44:57;99398.02;;;6.31;76.04
81997;BME280;71500;50.806;8.774;2023-12-28T00:47:29;99397.30;;;6.36;75.76
81997;BME280;71500;50.806;8.774;2023-12-28T00:50:00;99413.29;;;6.41;75.57
81997;BME280;71500;50.806;8.774;2023-12-28T00:52:32;99407.92;;;6.44;75.63
81997;BME280;71500;50.806;8.774;2023-12-28T00:55:05;99406.38;;;6.46;75.45
81997;BME280;71500;50.806;8.774;2023-12-28T00:57:37;99412.90;;;6.48;75.43
81997;BME280;71500;50.806;8.774;2023-12-28T01:00:11;99412.81;;;6.49;75.51
81997;BME280;71500;50.806;8.774;2023-12-28T01:02:41;99417.78;;;6.48;75.34
81997;BME280;71500;50.806;8.774;2023-12-28T01:05:13;99409.64;;;6.49;75.33
81997;BME280;71500;50.806;8.774;2023-12-28T01:07:45;99410.98;;;6.48;75.30
81997;BME280;71500;50.806;8.774;2023-12-28T01:10:17;99422.38;;;6.48;75.71
81997;BME280;71500;50.806;8.774;2023-12-28T01:12:48;99430.29;;;6.49;75.80
81997;BME280;71500;50.806;8.774;2023-12-28T01:15:20;99453.06;;;6.49;75.78
81997;BME280;71500;50.806;8.774;2023-12-28T01:17:54;99458.39;;;6.50;75.78
81997;BME280;71500;50.806;8.774;2023-12-28T01:20:26;99452.52;;;6.53;75.70
81997;BME280;71500;50.806;8.774;2023-12-28T01:22:57;99468.13;;;6.59;75.64
81997;BME280;71500;50.806;8.774;2023-12-28T01:25:28;99464.88;;;6.62;75.85
81997;BME280;71500;50.806;8.774;2023-12-28T01:28:00;99446.07;;;6.66;75.99
81997;BME280;71500;50.806;8.774;2023-12-28T01:30:32;99447.41;;;6.69;75.76
81997;BME280;71500;50.806;8.774;2023-12-28T01:33:05;99470.39;;;6.72;75.54
81997;BME280;71500;50.806;8.774;2023-12-28T01:35:39;99480.66;;;6.76;75.40
81997;BME280;71500;50.806;8.774;2023-12-28T01:38:11;99467.35;;;6.78;74.84
81997;BME280;71500;50.806;8.774;2023-12-28T01:40:46;99467.14;;;6.78;74.67
81997;BME280;71500;50.806;8.774;2023-12-28T01:43:17;99480.58;;;6.78;74.30
81997;BME280;71500;50.806;8.774;2023-12-28T01:45:49;99487.80;;;6.78;74.37
81997;BME280;71500;50.806;8.774;2023-12-28T01:48:21;99499.92;;;6.76;74.31
81997;BME280;71500;50.806;8.774;2023-12-28T01:50:53;99507.41;;;6.75;74.14
81997;BME280;71500;50.806;8.774;2023-12-28T01:53:24;99497.48;;;6.73;74.22
81997;BME280;71500;50.806;8.774;2023-12-28T01:55:56;99498.73;;;6.71;74.46
81997;BME280;71500;50.806;8.774;2023-12-28T01:58:29;99515.09;;;6.70;74.75
81997;BME280;71500;50.806;8.774;2023-12-28T02:01:05;99519.99;;;6.68;74.79
81997;BME280;71500;50.806;8.774;2023-12-28T02:03:36;99508.42;;;6.67;74.81
81997;BME280;71500;50.806;8.774;2023-12-28T02:06:08;99500.43;;;6.65;75.26
81997;BME280;71500;50.806;8.774;2023-12-28T02:08:41;99501.89;;;6.65;75.37
81997;BME280;71500;50.806;8.774;2023-12-28T02:11:12;99502.84;;;6.68;75.31
81997;BME280;71500;50.806;8.774;2023-12-28T02:13:44;99508.73;;;6.69;75.00
81997;BME280;71500;50.806;8.774;2023-12-28T02:16:20;99505.15;;;6.70;74.86
81997;BME280;71500;50.806;8.774;2023-12-28T02:18:54;99494.23;;;6.72;74.96
81997;BME280;71500;50.806;8.774;2023-12-28T02:21:28;99495.95;;;6.75;75.17
81997;BME280;71500;50.806;8.774;2023-12-28T02:24:02;99498.21;;;6.76;75.34
81997;BME280;71500;50.806;8.774;2023-12-28T02:26:33;99503.94;;;6.77;75.50
81997;BME280;71500;50.806;8.774;2023-12-28T02:29:05;99509.67;;;6.80;75.49
81997;BME280;71500;50.806;8.774;2023-12-28T02:31:39;99513.41;;;6.82;75.24
81997;BME280;71500;50.806;8.774;2023-12-28T02:34:19;99505.75;;;6.83;75.03
81997;BME280;71500;50.806;8.774;2023-12-28T02:36:53;99507.22;;;6.82;75.21
81997;BME280;71500;50.806;8.774;2023-12-28T02:39:28;99511.59;;;6.80;75.28
81997;BME280;71500;50.806;8.774;2023-12-28T02:42:00;99515.75;;;6.79;75.33
81997;BME280;71500;50.806;8.774;2023-12-28T02:44:32;99521.52;;;6.77;75.02
81997;BME280;71500;50.806;8.774;2023-12-28T02:47:03;99521.98;;;6.76;74.85
81997;BME280;71500;50.806;8.774;2023-12-28T02:49:34;99520.04;;;6.74;74.86
81997;BME280;71500;50.806;8.774;2023-12-28T02:52:07;99511.10;;;6.73;74.92
81997;BME280;71500;50.806;8.774;2023-12-28T02:54:38;99506.83;;;6.71;74.93
81997;BME280;71500;50.806;8.774;2023-12-28T02:57:10;99507.70;;;6.71;75.20
81997;BME280;71500;50.806;8.774;2023-12-28T02:59:41;99496.70;;;6.72;75.27
81997;BME280;71500;50.806;8.774;2023-12-28T03:02:12;99502.64;;;6.78;75.39
81997;BME280;71500;50.806;8.774;2023-12-28T03:04:44;99501.77;;;6.82;75.42
81997;BME280;71500;50.806;8.774;2023-12-28T03:07:15;99498.47;;;6.86;75.58
81997;BME280;71500;50.806;8.774;2023-12-28T03:09:46;99492.88;;;6.89;75.90
81997;BME280;71500;50.806;8.774;2023-12-28T03:12:18;99493.82;;;6.93;76.17
81997;BME280;71500;50.806;8.774;2023-12-28T03:14:49;99498.04;;;6.95;76.26
81997;BME280;71500;50.806;8.774;2023-12-28T03:17:21;99498.98;;;6.99;76.25
81997;BME280;71500;50.806;8.774;2023-12-28T03:19:52;99499.38;;;7.01;76.32
81997;BME280;71500;50.806;8.774;2023-12-28T03:22:23;99510.55;;;7.02;76.34
81997;BME280;71500;50.806;8.774;2023-12-28T03:24:55;99517.91;;;7.03;76.44
81997;BME280;71500;50.806;8.774;2023-12-28T03:27:26;99505.38;;;7.03;76.40
81997;BME280;71500;50.806;8.774;2023-12-28T03:29:58;99506.05;;;7.03;76.34
81997;BME280;71500;50.806;8.774;2023-12-28T03:32:29;99504.75;;;7.06;76.27
81997;BME280;71500;50.806;8.774;2023-12-28T03:35:01;99503.14;;;7.09;76.17
81997;BME280;71500;50.806;8.774;2023-12-28T03:37:32;99518.81;;;7.12;76.21
81997;BME280;71500;50.806;8.774;2023-12-28T03:40:05;99515.73;;;7.15;76.34
81997;BME280;71500;50.806;8.774;2023-12-28T03:42:37;99512.83;;;7.18;76.39
81997;BME280;71500;50.806;8.774;2023-12-28T03:45:10;99515.46;;;7.22;76.35
81997;BME280;71500;50.806;8.774;2023-12-28T03:47:42;99509.30;;;7.24;76.42
81997;BME280;71500;50.806;8.774;2023-12-28T03:50:14;99514.02;;;7.27;76.29
81997;BME280;71500;50.806;8.774;2023-12-28T03:52:45;99503.16;;;7.28;76.27
81997;BME280;71500;50.806;8.774;2023-12-28T03:55:17;99520.54;;;7.30;76.22
81997;BME280;71500;50.806;8.774;2023-12-28T03:57:48;99520.52;;;7.30;76.28
81997;BME280;71500;50.806;8.774;2023-12-28T04:00:21;99522.73;;;7.31;76.34
81997;BME280;71500;50.806;8.774;2023-12-28T04:02:53;99512.73;;;7.34;76.26
81997;BME280;71500;50.806;8.774;2023-12-28T04:05:25;99517.05;;;7.38;76.23
81997;BME280;71500;50.806;8.774;2023-12-28T04:07:56;99522.48;;;7.41;76.38
81997;BME280;71500;50.806;8.774;2023-12-28T04:10:31;99519.23;;;7.44;76.37
81997;BME280;71500;50.806;8.774;2023-12-28T04:13:03;99523.84;;;7.48;76.35
81997;BME280;71500;50.806;8.774;2023-12-28T04:15:35;99523.84;;;7.51;76.32
81997;BME280;71500;50.806;8.774;2023-12-28T04:18:07;99532.05;;;7.52;76.41
81997;BME280;71500;50.806;8.774;2023-12-28T04:20:38;99528.66;;;7.52;76.47
81997;BME280;71500;50.806;8.774;2023-12-28T04:23:10;99527.79;;;7.52;76.45
81997;BME280;71500;50.806;8.774;2023-12-28T04:25:41;99520.42;;;7.51;76.41
81997;BME280;71500;50.806;8.774;2023-12-28T04:28:14;99529.02;;;7.50;76.44
81997;BME280;71500;50.806;8.774;2023-12-28T04:30:46;99528.06;;;7.49;76.53
81997;BME280;71500;50.806;8.774;2023-12-28T04:33:19;99526.02;;;7.50;76.50
81997;BME280;71500;50.806;8.774;2023-12-28T04:35:50;99523.43;;;7.51;76.47
81997;BME280;71500;50.806;8.774;2023-12-28T04:38:22;99522.13;;;7.52;76.46
81997;BME280;71500;50.806;8.774;2023-12-28T04:40:53;99522.88;;;7.54;76.46
81997;BME280;71500;50.806;8.774;2023-12-28T04:43:24;99523.77;;;7.53;76.52
81997;BME280;71500;50.806;8.774;2023-12-28T04:45:56;99517.38;;;7.54;76.57
81997;BME280;71500;50.806;8.774;2023-12-28T04:48:27;99519.04;;;7.55;76.67
81997;BME280;71500;50.806;8.774;2023-12-28T04:51:01;99518.30;;;7.56;76.73
81997;BME280;71500;50.806;8.774;2023-12-28T04:53:33;99531.66;;;7.56;76.80
81997;BME280;71500;50.806;8.774;2023-12-28T04:56:06;99527.23;;;7.56;76.75
81997;BME280;71500;50.806;8.774;2023-12-28T04:58:37;99523.56;;;7.56;76.82
81997;BME280;71500;50.806;8.774;2023-12-28T05:01:08;99517.89;;;7.56;76.81
81997;BME280;71500;50.806;8.774;2023-12-28T05:03:40;99516.48;;;7.61;76.74
81997;BME280;71500;50.806;8.774;2023-12-28T05:06:11;99512.69;;;7.64;76.84
81997;BME280;71500;50.806;8.774;2023-12-28T05:08:43;99517.38;;;7.67;76.79
81997;BME280;71500;50.806;8.774;2023-12-28T05:11:14;99511.93;;;7.71;76.71
81997;BME280;71500;50.806;8.774;2023-12-28T05:13:45;99514.16;;;7.74;76.74
81997;BME280;71500;50.806;8.774;2023-12-28T05:16:16;99507.77;;;7.76;76.70
81997;BME280;71500;50.806;8.774;2023-12-28T05:18:48;99507.83;;;7.80;76.61
81997;BME280;71500;50.806;8.774;2023-12-28T05:21:19;99503.96;;;7.81;76.75
81997;BME280;71500;50.806;8.774;2023-12-28T05:23:51;99503.89;;;7.82;76.59
81997;BME280;71500;50.806;8.774;2023-12-28T05:26:22;99503.92;;;7.82;76.74
81997;BME280;71500;50.806;8.774;2023-12-28T05:28:54;99512.42;;;7.82;76.72
81997;BME280;71500;50.806;8.774;2023-12-28T05:31:25;99512.86;;;7.81;76.75
81997;BME280;71500;50.806;8.774;2023-12-28T05:33:57;99517.89;;;7.80;76.80
81997;BME280;71500;50.806;8.774;2023-12-28T05:36:29;99523.73;;;7.80;76.72
81997;BME280;71500;50.806;8.774;2023-12-28T05:39:00;99524.07;;;7.82;76.81
81997;BME280;71500;50.806;8.774;2023-12-28T05:41:32;99521.41;;;7.84;76.83
81997;BME280;71500;50.806;8.774;2023-12-28T05:44:03;99516.69;;;7.86;76.82
81997;BME280;71500;50.806;8.774;2023-12-28T05:46:35;99514.61;;;7.85;76.95
81997;BME280;71500;50.806;8.774;2023-12-28T05:49:06;99522.02;;;7.90;77.02
81997;BME280;71500;50.806;8.774;2023-12-28T05:51:40;99516.86;;;7.90;77.21
81997;BME280;71500;50.806;8.774;2023-12-28T05:54:12;99521.55;;;7.91;77.21
81997;BME280;71500;50.806;8.774;2023-12-28T05:56:43;99524.16;;;7.92;77.35
81997;BME280;71500;50.806;8.774;2023-12-28T05:59:14;99522.17;;;7.92;77.52
81997;BME280;71500;50.806;8.774;2023-12-28T06:01:48;99518.54;;;7.95;77.52
81997;BME280;71500;50.806;8.774;2023-12-28T06:04:20;99526.28;;;7.98;77.49
81997;BME280;71500;50.806;8.774;2023-12-28T06:06:51;99520.06;;;8.00;77.67
81997;BME280;71500;50.806;8.774;2023-12-28T06:09:23;99525.07;;;8.02;77.75
81997;BME280;71500;50.806;8.774;2023-12-28T06:11:54;99530.08;;;8.03;77.84
81997;BME280;71500;50.806;8.774;2023-12-28T06:14:26;99534.40;;;8.05;77.81
81997;BME280;71500;50.806;8.774;2023-12-28T06:16:57;99534.59;;;8.04;77.78
81997;BME280;71500;50.806;8.774;2023-12-28T06:19:28;99535.26;;;8.05;77.93
81997;BME280;71500;50.806;8.774;2023-12-28T06:22:00;99538.66;;;8.04;77.96
81997;BME280;71500;50.806;8.774;2023-12-28T06:24:31;99540.00;;;8.07;77.91
81997;BME280;71500;50.806;8.774;2023-12-28T06:27:04;99531.85;;;8.07;77.88
81997;BME280;71500;50.806;8.774;2023-12-28T06:29:36;99535.55;;;8.10;78.04
81997;BME280;71500;50.806;8.774;2023-12-28T06:32:08;99538.23;;;8.09;77.93
81997;BME280;71500;50.806;8.774;2023-12-28T06:34:39;99542.60;;;8.10;77.94
81997;BME280;71500;50.806;8.774;2023-12-28T06:37:10;99545.59;;;8.10;78.03
81997;BME280;71500;50.806;8.774;2023-12-28T06:39:42;99549.70;;;8.10;78.03
81997;BME280;71500;50.806;8.774;2023-12-28T06:42:13;99551.04;;;8.08;78.11
81997;BME280;71500;50.806;8.774;2023-12-28T06:44:45;99553.85;;;8.07;78.00
81997;BME280;71500;50.806;8.774;2023-12-28T06:47:16;99556.11;;;8.07;78.22
81997;BME280;71500;50.806;8.774;2023-12-28T06:49:48;99555.05;;;8.09;78.23
81997;BME280;71500;50.806;8.774;2023-12-28T06:52:19;99556.52;;;8.11;78.10
81997;BME280;71500;50.806;8.774;2023-12-28T06:54:53;99556.38;;;8.12;78.11
81997;BME280;71500;50.806;8.774;2023-12-28T06:57:24;99558.47;;;8.13;78.13
81997;BME280;71500;50.806;8.774;2023-12-28T06:59:55;99557.64;;;8.14;78.17
81997;BME280;71500;50.806;8.774;2023-12-28T07:02:30;99557.01;;;8.16;78.35
81997;BME280;71500;50.806;8.774;2023-12-28T07:05:02;99552.98;;;8.15;78.37
81997;BME280;71500;50.806;8.774;2023-12-28T07:07:34;99557.22;;;8.15;78.27
81997;BME280;71500;50.806;8.774;2023-12-28T07:10:08;99557.42;;;8.15;78.29
81997;BME280;71500;50.806;8.774;2023-12-28T07:12:40;99561.39;;;8.18;78.27
81997;BME280;71500;50.806;8.774;2023-12-28T07:15:12;99562.36;;;8.19;78.21
81997;BME280;71500;50.806;8.774;2023-12-28T07:17:43;99562.74;;;8.21;78.24
81997;BME280;71500;50.806;8.774;2023-12-28T07:20:15;99562.48;;;8.24;78.27
81997;BME280;71500;50.806;8.774;2023-12-28T07:22:47;99560.89;;;8.26;78.28
81997;BME280;71500;50.806;8.774;2023-12-28T07:25:22;99566.08;;;8.28;78.06
81997;BME280;71500;50.806;8.774;2023-12-28T07:27:54;99563.30;;;8.29;78.03
81997;BME280;71500;50.806;8.774;2023-12-28T07:30:26;99562.64;;;8.31;77.99
81997;BME280;71500;50.806;8.774;2023-12-28T07:32:58;99565.70;;;8.32;77.82
81997;BME280;71500;50.806;8.774;2023-12-28T07:35:30;99566.73;;;8.32;77.75
81997;BME280;71500;50.806;8.774;2023-12-28T07:38:01;99569.17;;;8.31;77.51
81997;BME280;71500;50.806;8.774;2023-12-28T07:40:32;99574.61;;;8.29;77.34
81997;BME280;71500;50.806;8.774;2023-12-28T07:43:04;99578.96;;;8.26;77.40
81997;BME280;71500;50.806;8.774;2023-12-28T07:45:35;99584.76;;;8.22;77.29
81997;BME280;71500;50.806;8.774;2023-12-28T07:48:09;99586.81;;;8.18;77.35
81997;BME280;71500;50.806;8.774;2023-12-28T07:50:41;99590.83;;;8.15;77.18
81997;BME280;71500;50.806;8.774;2023-12-28T07:53:12;99595.37;;;8.13;76.94
81997;BME280;71500;50.806;8.774;2023-12-28T07:55:43;99595.52;;;8.12;76.91
81997;BME280;71500;50.806;8.774;2023-12-28T07:58:15;99601.55;;;8.11;76.81
81997;BME280;71500;50.806;8.774;2023-12-28T08:00:47;99604.54;;;8.09;76.90
81997;BME280;71500;50.806;8.774;2023-12-28T08:03:19;99606.04;;;8.08;77.05
81997;BME280;71500;50.806;8.774;2023-12-28T08:05:51;99604.45;;;8.08;77.15
81997;BME280;71500;50.806;8.774;2023-12-28T08:08:22;99604.55;;;8.07;77.04
81997;BME280;71500;50.806;8.774;2023-12-28T08:10:53;99600.17;;;8.06;77.06
81997;BME280;71500;50.806;8.774;2023-12-28T08:13:25;99593.11;;;8.04;77.14
81997;BME280;71500;50.806;8.774;2023-12-28T08:15:56;99595.76;;;8.02;77.07
81997;BME280;71500;50.806;8.774;2023-12-28T08:18:28;99591.67;;;8.00;77.05
81997;BME280;71500;50.806;8.774;2023-12-28T08:20:59;99593.29;;;7.98;77.19
81997;BME280;71500;50.806;8.774;2023-12-28T08:23:30;99593.93;;;7.96;77.11
81997;BME280;71500;50.806;8.774;2023-12-28T08:26:02;99594.98;;;7.99;77.20
81997;BME280;71500;50.806;8.774;2023-12-28T08:28:34;99597.71;;;8.00;77.17
81997;BME280;71500;50.806;8.774;2023-12-28T08:31:06;99600.70;;;8.00;77.08
81997;BME280;71500;50.806;8.774;2023-12-28T08:33:38;99603.77;;;8.01;77.08
81997;BME280;71500;50.806;8.774;2023-12-28T08:36:11;99605.01;;;8.04;77.14
81997;BME280;71500;50.806;8.774;2023-12-28T08:38:42;99603.66;;;8.05;77.03
81997;BME280;71500;50.806;8.774;2023-12-28T08:41:20;99595.80;;;8.06;77.09
81997;BME280;71500;50.806;8.774;2023-12-28T08:43:54;99603.70;;;8.09;77.07
81997;BME280;71500;50.806;8.774;2023-12-28T08:46:25;99604.36;;;8.07;77.03
81997;BME280;71500;50.806;8.774;2023-12-28T08:48:57;99605.04;;;8.08;77.00
81997;BME280;71500;50.806;8.774;2023-12-28T08:51:29;99602.09;;;8.05;76.87
81997;BME280;71500;50.806;8.774;2023-12-28T08:54:00;99611.02;;;8.01;76.93
81997;BME280;71500;50.806;8.774;2023-12-28T08:56:31;99616.21;;;7.99;76.85
81997;BME280;71500;50.806;8.774;2023-12-28T08:59:03;99613.80;;;7.96;76.88
81997;BME280;71500;50.806;8.774;2023-12-28T09:01:35;99609.54;;;7.94;77.09
81997;BME280;71500;50.806;8.774;2023-12-28T09:04:07;99610.74;;;7.92;77.01
81997;BME280;71500;50.806;8.774;2023-12-28T09:06:38;99606.69;;;7.94;76.96
81997;BME280;71500;50.806;8.774;2023-12-28T09:09:10;99608.02;;;7.95;76.93
81997;BME280;71500;50.806;8.774;2023-12-28T09:11:42;99612.77;;;7.98;76.89
81997;BME280;71500;50.806;8.774;2023-12-28T09:14:13;99619.58;;;8.01;76.80
81997;BME280;71500;50.806;8.774;2023-12-28T09:16:47;99619.69;;;8.04;76.92
81997;BME280;71500;50.806;8.774;2023-12-28T09:19:18;99622.14;;;8.08;76.78
81997;BME280;71500;50.806;8.774;2023-12-28T09:21:49;99631.85;;;8.13;76.73
81997;BME280;71500;50.806;8.774;2023-12-28T09:24:21;99637.30;;;8.15;76.83
81997;BME280;71500;50.806;8.774;2023-12-28T09:26:52;99639.84;;;8.19;76.75
81997;BME280;71500;50.806;8.774;2023-12-28T09:29:24;99653.37;;;8.22;76.78
81997;BME280;71500;50.806;8.774;2023-12-28T09:31:55;99663.34;;;8.23;76.63
81997;BME280;71500;50.806;8.774;2023-12-28T09:34:26;99664.60;;;8.25;76.59
81997;BME280;71500;50.806;8.774;2023-12-28T09:36:58;99670.80;;;8.30;76.52
81997;BME280;71500;50.806;8.774;2023-12-28T09:39:29;99669.34;;;8.34;76.51
81997;BME280;71500;50.806;8.774;2023-12-28T09:42:04;99662.00;;;8.40;76.39
81997;BME280;71500;50.806;8.774;2023-12-28T09:44:38;99665.29;;;8.48;76.40
81997;BME280;71500;50.806;8.774;2023-12-28T09:47:10;99663.69;;;8.54;76.27
81997;BME280;71500;50.806;8.774;2023-12-28T09:49:43;99668.92;;;8.61;76.03
81997;BME280;71500;50.806;8.774;2023-12-28T09:52:15;99664.00;;;8.67;75.97
81997;BME280;71500;50.806;8.774;2023-12-28T09:54:46;99665.35;;;8.72;75.72
81997;BME280;71500;50.806;8.774;2023-12-28T09:57:18;99665.25;;;8.75;75.54
81997;BME280;71500;50.806;8.774;2023-12-28T09:59:50;99664.83;;;8.76;75.69
81997;BME280;71500;50.806;8.774;2023-12-28T10:02:22;99668.39;;;8.78;75.64
81997;BME280;71500;50.806;8.774;2023-12-28T10:04:53;99672.73;;;8.79;75.49
81997;BME280;71500;50.806;8.774;2023-12-28T10:07:24;99676.18;;;8.80;75.35
81997;BME280;71500;50.806;8.774;2023-12-28T10:09:56;99676.11;;;8.81;75.20
81997;BME280;71500;50.806;8.774;2023-12-28T10:12:28;99674.41;;;8.84;75.13
81997;BME280;71500;50.806;8.774;2023-12-28T10:15:00;99675.70;;;8.88;75.10
81997;BME280;71500;50.806;8.774;2023-12-28T10:17:33;99673.28;;;8.93;75.07
81997;BME280;71500;50.806;8.774;2023-12-28T10:20:07;99676.33;;;8.99;74.97
81997;BME280;71500;50.806;8.774;2023-12-28T10:22:40;99674.42;;;9.05;74.65
81997;BME280;71500;50.806;8.774;2023-12-28T10:25:12;99675.86;;;9.09;74.54
81997;BME280;71500;50.806;8.774;2023-12-28T10:27:44;99672.50;;;9.13;74.62
81997;BME280;71500;50.806;8.774;2023-12-28T10:30:15;99674.55;;;9.16;74.33
81997;BME280;71500;50.806;8.774;2023-12-28T10:32:47;99673.65;;;9.18;74.42
81997;BME280;71500;50.806;8.774;2023-12-28T10:35:19;99669.61;;;9.20;74.45
81997;BME280;71500;50.806;8.774;2023-12-28T10:37:53;99672.05;;;9.20;74.41
81997;BME280;71500;50.806;8.774;2023-12-28T10:40:30;99665.89;;;9.19;74.26
81997;BME280;71500;50.806;8.774;2023-12-28T10:43:04;99665.55;;;9.19;74.34
81997;BME280;71500;50.806;8.774;2023-12-28T10:45:40;99668.99;;;9.18;74.28
81997;BME280;71500;50.806;8.774;2023-12-28T10:48:14;99669.98;;;9.17;74.20
81997;BME280;71500;50.806;8.774;2023-12-28T10:50:50;99664.14;;;9.17;73.98
81997;BME280;71500;50.806;8.774;2023-12-28T10:53:33;99657.90;;;9.20;73.93
81997;BME280;71500;50.806;8.774;2023-12-28T10:56:20;99655.42;;;9.24;73.84
81997;BME280;71500;50.806;8.774;2023-12-28T10:58:57;99646.50;;;9.26;73.87
81997;BME280;71500;50.806;8.774;2023-12-28T11:01:33;99640.45;;;9.31;73.61
81997;BME280;71500;50.806;8.774;2023-12-28T11:04:10;99647.63;;;9.36;73.46
81997;BME280;71500;50.806;8.774;2023-12-28T11:06:45;99638.75;;;9.40;73.42
81997;BME280;71500;50.806;8.774;2023-12-28T11:09:18;99640.19;;;9.44;73.33
81997;BME280;71500;50.806;8.774;2023-12-28T11:11:52;99640.86;;;9.47;73.26
81997;BME280;71500;50.806;8.774;2023-12-28T11:14:24;99633.52;;;9.50;73.14
81997;BME280;71500;50.806;8.774;2023-12-28T11:17:00;99634.63;;;9.51;72.74
81997;BME280;71500;50.806;8.774;2023-12-28T11:19:32;99631.34;;;9.53;72.88
81997;BME280;71500;50.806;8.774;2023-12-28T11:22:05;99623.82;;;9.53;72.83
81997;BME280;71500;50.806;8.774;2023-12-28T11:24:37;99622.65;;;9.55;72.77
81997;BME280;71500;50.806;8.774;2023-12-28T11:27:09;99618.90;;;9.57;72.76
81997;BME280;71500;50.806;8.774;2023-12-28T11:29:42;99618.54;;;9.61;72.37
81997;BME280;71500;50.806;8.774;2023-12-28T11:32:14;99614.05;;;9.66;72.40
81997;BME280;71500;50.806;8.774;2023-12-28T11:34:48;99617.03;;;9.70;72.13
81997;BME280;71500;50.806;8.774;2023-12-28T11:37:29;99612.41;;;9.76;71.86
81997;BME280;71500;50.806;8.774;2023-12-28T11:40:12;99612.14;;;9.81;71.67
81997;BME280;71500;50.806;8.774;2023-12-28T11:42:54;99606.06;;;9.85;71.55
81997;BME280;71500;50.806;8.774;2023-12-28T11:45:26;99599.70;;;9.89;71.48
81997;BME280;71500;50.806;8.774;2023-12-28T11:48:01;99593.05;;;9.90;71.37
81997;BME280;71500;50.806;8.774;2023-12-28T11:50:34;99590.92;;;9.90;71.21
81997;BME280;71500;50.806;8.774;2023-12-28T11:53:05;99585.23;;;9.90;70.89
81997;BME280;71500;50.806;8.774;2023-12-28T11:55:37;99576.59;;;9.88;70.88
81997;BME280;71500;50.806;8.774;2023-12-28T11:58:08;99565.23;;;9.86;70.83
81997;BME280;71500;50.806;8.774;2023-12-28T12:00:44;99562.61;;;9.84;70.59
81997;BME280;71500;50.806;8.774;2023-12-28T12:03:16;99564.52;;;9.80;70.31
81997;BME280;71500;50.806;8.774;2023-12-28T12:05:48;99557.95;;;9.76;70.15
81997;BME280;71500;50.806;8.774;2023-12-28T12:08:20;99560.45;;;9.74;70.09
81997;BME280;71500;50.806;8.774;2023-12-28T12:11:02;99555.39;;;9.74;70.09
81997;BME280;71500;50.806;8.774;2023-12-28T12:13:34;99552.58;;;9.71;69.81
81997;BME280;71500;50.806;8.774;2023-12-28T12:16:07;99549.55;;;9.71;69.12
81997;BME280;71500;50.806;8.774;2023-12-28T12:18:39;99538.37;;;9.69;69.14
81997;BME280;71500;50.806;8.774;2023-12-28T12:21:11;99529.08;;;9.68;69.02
81997;BME280;71500;50.806;8.774;2023-12-28T12:23:43;99521.58;;;9.69;68.77
81997;BME280;71500;50.806;8.774;2023-12-28T12:26:15;99525.89;;;9.70;68.52
81997;BME280;71500;50.806;8.774;2023-12-28T12:28:48;99520.91;;;9.70;68.43
81997;BME280;71500;50.806;8.774;2023-12-28T12:31:20;99525.98;;;9.73;67.95
81997;BME280;71500;50.806;8.774;2023-12-28T12:33:52;99516.47;;;9.74;67.92
81997;BME280;71500;50.806;8.774;2023-12-28T12:36:24;99524.39;;;9.77;67.45
81997;BME280;71500;50.806;8.774;2023-12-28T12:38:56;99524.74;;;9.79;66.82
81997;BME280;71500;50.806;8.774;2023-12-28T12:41:27;99524.80;;;9.82;66.92
81997;BME280;71500;50.806;8.774;2023-12-28T12:43:59;99516.71;;;9.85;66.97
81997;BME280;71500;50.806;8.774;2023-12-28T12:46:31;99515.60;;;9.88;66.89
81997;BME280;71500;50.806;8.774;2023-12-28T12:49:03;99512.05;;;9.90;66.55
81997;BME280;71500;50.806;8.774;2023-12-28T12:51:34;99512.86;;;9.92;66.30
81997;BME280;71500;50.806;8.774;2023-12-28T12:54:07;99509.27;;;9.95;66.36
81997;BME280;71500;50.806;8.774;2023-12-28T12:56:40;99498.87;;;9.96;66.43
81997;BME280;71500;50.806;8.774;2023-12-28T12:59:15;99490.90;;;9.98;66.54
81997;BME280;71500;50.806;8.774;2023-12-28T13:01:48;99485.81;;;9.99;66.46
81997;BME280;71500;50.806;8.774;2023-12-28T13:04:20;99489.54;;;10.01;66.43
81997;BME280;71500;50.806;8.774;2023-12-28T13:06:51;99486.41;;;10.02;66.10
81997;BME280;71500;50.806;8.774;2023-12-28T13:09:23;99487.61;;;10.03;65.88
81997;BME280;71500;50.806;8.774;2023-12-28T13:11:55;99489.20;;;10.05;65.89
81997;BME280;71500;50.806;8.774;2023-12-28T13:14:26;99487.05;;;10.05;65.89
81997;BME280;71500;50.806;8.774;2023-12-28T13:16:59;99487.92;;;10.05;65.87
81997;BME280;71500;50.806;8.774;2023-12-28T13:19:30;99493.27;;;10.05;65.47
81997;BME280;71500;50.806;8.774;2023-12-28T13:22:01;99494.45;;;10.06;65.36
81997;BME280;71500;50.806;8.774;2023-12-28T13:24:33;99490.18;;;10.06;65.23
81997;BME280;71500;50.806;8.774;2023-12-28T13:27:04;99495.69;;;10.06;65.20
81997;BME280;71500;50.806;8.774;2023-12-28T13:29:36;99495.21;;;10.05;64.97
81997;BME280;71500;50.806;8.774;2023-12-28T13:32:08;99489.43;;;10.02;65.11
81997;BME280;71500;50.806;8.774;2023-12-28T13:34:39;99489.41;;;10.03;64.96
81997;BME280;71500;50.806;8.774;2023-12-28T13:37:11;99491.06;;;10.02;64.84